Marysville, KS (66508)

9:00 PM CST on December 07, 2016 (GMT -0600)
| | Change Station

Elev -9999 ft 0.00 °N, 0.00 °E | Updated

Clear
Clear
19 °F
Feels Like 7 °F
N
12
Wind Variable Wind from NW
Gusts 20 mph

Today
High -- | Low -- °F
--% Chance of Precip.
Yesterday
High -- | Low -- °F
Precip. -- in
Pressure 30.46 in
Visibility 10.0 miles
Clouds Clear
Windchill 7 °F
Dew Point 8 °F
Humidity 62%
Rainfall --
Snow Depth Not available.
7:34 AM 5:01 PM
First Quarter, 58% visible
METAR KBIE 080255Z AUTO 30007KT 10SM CLR M08/M13 A3046 RMK AO2 T10821132
Pressure 30.46 in
Visibility 10.0 miles
Clouds Clear
Windchill 7 °F
Dew Point 8 °F
Humidity 62%
Rainfall --
Snow Depth Not available.
7:34 AM 5:01 PM
First Quarter, 58% visible
METAR KBIE 080255Z AUTO 30007KT 10SM CLR M08/M13 A3046 RMK AO2 T10821132

10-Day Weather Forecast

Almanac

Astronomy

Dec. 07, 2016 Rise Set
Actual Time
Civil Twilight
Nautical Twilight
Astronomical Twilight
Moon
Length of Visible Light
Length of Day
Tomorrow will be .
, % of the Moon is Illuminated

Today's Extremes

State Highs State Lows

Community

WunderPhotos

Upload Photos

1,956,259 photos uploaded!

WunderBlog® & News

Nearby

Air Quality

  Air Quality AQ Index Pollutant
Not available.

Snow Depth

Station Depth Elevation

Earthquake Activity

City Distance Mag. Time & Date
Minimum magnitude displayed is 2.5.

Coastal Water Temperatures

Place Temperature

Stations

Nearby Weather Stations

Station Location Temp. Windchill Dew Point Humidity Wind Precip. Elev Updated Type
                   

Watches & Warnings

There are currently no watches in effect.